sensor_id;sensor_type;location;lat;lon;timestamp;P1;durP1;ratioP1;P2;durP2;ratioP2
68854;SDS011;55859;55.710;12.464;2022-07-25T00:00:36;5.35;;;3.13;;
68854;SDS011;55859;55.710;12.464;2022-07-25T00:03:01;4.78;;;4.05;;
68854;SDS011;55859;55.710;12.464;2022-07-25T00:05:27;5.38;;;3.90;;
68854;SDS011;55859;55.710;12.464;2022-07-25T00:07:52;4.13;;;3.40;;
68854;SDS011;55859;55.710;12.464;2022-07-25T00:10:17;3.38;;;3.08;;
68854;SDS011;55859;55.710;12.464;2022-07-25T00:12:43;4.55;;;3.88;;
68854;SDS011;55859;55.710;12.464;2022-07-25T00:15:09;8.95;;;3.92;;
68854;SDS011;55859;55.710;12.464;2022-07-25T00:17:35;3.97;;;3.67;;
68854;SDS011;55859;55.710;12.464;2022-07-25T00:20:01;4.55;;;3.83;;
68854;SDS011;55859;55.710;12.464;2022-07-25T00:22:27;3.65;;;3.45;;
68854;SDS011;55859;55.710;12.464;2022-07-25T00:24:52;3.47;;;3.03;;
68854;SDS011;55859;55.710;12.464;2022-07-25T00:27:18;4.17;;;3.83;;
68854;SDS011;55859;55.710;12.464;2022-07-25T00:29:43;4.22;;;3.92;;
68854;SDS011;55859;55.710;12.464;2022-07-25T00:32:08;10.45;;;3.65;;
68854;SDS011;55859;55.710;12.464;2022-07-25T00:34:34;3.28;;;3.08;;
68854;SDS011;55859;55.710;12.464;2022-07-25T00:37:00;3.97;;;3.67;;
68854;SDS011;55859;55.710;12.464;2022-07-25T00:39:25;6.57;;;4.07;;
68854;SDS011;55859;55.710;12.464;2022-07-25T00:41:50;5.50;;;4.00;;
68854;SDS011;55859;55.710;12.464;2022-07-25T00:44:23;4.15;;;3.70;;
68854;SDS011;55859;55.710;12.464;2022-07-25T00:46:49;4.10;;;3.80;;
68854;SDS011;55859;55.710;12.464;2022-07-25T00:49:15;4.25;;;3.70;;
68854;SDS011;55859;55.710;12.464;2022-07-25T00:51:40;4.45;;;3.30;;
68854;SDS011;55859;55.710;12.464;2022-07-25T00:54:06;4.72;;;3.03;;
68854;SDS011;55859;55.710;12.464;2022-07-25T00:56:32;3.90;;;3.60;;
68854;SDS011;55859;55.710;12.464;2022-07-25T00:58:58;3.55;;;3.25;;
68854;SDS011;55859;55.710;12.464;2022-07-25T01:01:23;3.95;;;3.42;;
68854;SDS011;55859;55.710;12.464;2022-07-25T01:03:49;4.00;;;3.80;;
68854;SDS011;55859;55.710;12.464;2022-07-25T01:06:14;4.80;;;4.13;;
68854;SDS011;55859;55.710;12.464;2022-07-25T01:08:40;4.68;;;4.07;;
68854;SDS011;55859;55.710;12.464;2022-07-25T01:11:06;7.28;;;4.20;;
68854;SDS011;55859;55.710;12.464;2022-07-25T01:13:32;4.90;;;4.40;;
68854;SDS011;55859;55.710;12.464;2022-07-25T01:15:58;5.55;;;4.18;;
68854;SDS011;55859;55.710;12.464;2022-07-25T01:18:23;4.47;;;4.18;;
68854;SDS011;55859;55.710;12.464;2022-07-25T01:20:49;4.90;;;4.40;;
68854;SDS011;55859;55.710;12.464;2022-07-25T01:23:14;6.55;;;4.28;;
68854;SDS011;55859;55.710;12.464;2022-07-25T01:25:40;5.35;;;4.28;;
68854;SDS011;55859;55.710;12.464;2022-07-25T01:28:05;3.63;;;3.33;;
68854;SDS011;55859;55.710;12.464;2022-07-25T01:30:30;6.60;;;3.95;;
68854;SDS011;55859;55.710;12.464;2022-07-25T01:32:56;4.43;;;3.90;;
68854;SDS011;55859;55.710;12.464;2022-07-25T01:35:21;4.30;;;4.00;;
68854;SDS011;55859;55.710;12.464;2022-07-25T01:37:47;6.07;;;4.68;;
68854;SDS011;55859;55.710;12.464;2022-07-25T01:40:12;7.45;;;4.38;;
68854;SDS011;55859;55.710;12.464;2022-07-25T01:42:38;6.97;;;4.60;;
68854;SDS011;55859;55.710;12.464;2022-07-25T01:45:04;5.03;;;4.22;;
68854;SDS011;55859;55.710;12.464;2022-07-25T01:47:30;5.32;;;4.38;;
68854;SDS011;55859;55.710;12.464;2022-07-25T01:49:55;4.72;;;4.13;;
68854;SDS011;55859;55.710;12.464;2022-07-25T01:52:21;4.37;;;3.77;;
68854;SDS011;55859;55.710;12.464;2022-07-25T01:54:46;7.07;;;4.38;;
68854;SDS011;55859;55.710;12.464;2022-07-25T01:57:11;4.50;;;4.10;;
68854;SDS011;55859;55.710;12.464;2022-07-25T01:59:37;4.18;;;3.88;;
68854;SDS011;55859;55.710;12.464;2022-07-25T02:02:05;4.88;;;4.47;;
68854;SDS011;55859;55.710;12.464;2022-07-25T02:04:32;4.65;;;4.10;;
68854;SDS011;55859;55.710;12.464;2022-07-25T02:06:57;5.40;;;3.92;;
68854;SDS011;55859;55.710;12.464;2022-07-25T02:09:23;4.70;;;4.15;;
68854;SDS011;55859;55.710;12.464;2022-07-25T02:11:48;8.43;;;4.55;;
68854;SDS011;55859;55.710;12.464;2022-07-25T02:14:14;6.37;;;4.73;;
68854;SDS011;55859;55.710;12.464;2022-07-25T02:16:39;6.07;;;3.92;;
68854;SDS011;55859;55.710;12.464;2022-07-25T02:19:04;5.32;;;4.85;;
68854;SDS011;55859;55.710;12.464;2022-07-25T02:21:30;5.60;;;4.60;;
68854;SDS011;55859;55.710;12.464;2022-07-25T02:23:55;5.15;;;4.72;;
68854;SDS011;55859;55.710;12.464;2022-07-25T02:26:21;5.72;;;4.82;;
68854;SDS011;55859;55.710;12.464;2022-07-25T02:28:46;7.13;;;4.75;;
68854;SDS011;55859;55.710;12.464;2022-07-25T02:31:13;14.98;;;5.78;;
68854;SDS011;55859;55.710;12.464;2022-07-25T02:33:38;10.53;;;5.47;;
68854;SDS011;55859;55.710;12.464;2022-07-25T02:36:04;5.90;;;5.03;;
68854;SDS011;55859;55.710;12.464;2022-07-25T02:38:30;5.68;;;4.65;;
68854;SDS011;55859;55.710;12.464;2022-07-25T02:40:55;7.32;;;5.28;;
68854;SDS011;55859;55.710;12.464;2022-07-25T02:43:20;9.17;;;5.20;;
68854;SDS011;55859;55.710;12.464;2022-07-25T02:45:46;6.33;;;5.30;;
68854;SDS011;55859;55.710;12.464;2022-07-25T02:48:11;6.97;;;5.40;;
68854;SDS011;55859;55.710;12.464;2022-07-25T02:50:37;5.72;;;4.80;;
68854;SDS011;55859;55.710;12.464;2022-07-25T02:53:02;5.30;;;4.88;;
68854;SDS011;55859;55.710;12.464;2022-07-25T02:55:29;4.90;;;4.53;;
68854;SDS011;55859;55.710;12.464;2022-07-25T02:57:54;14.75;;;6.43;;
68854;SDS011;55859;55.710;12.464;2022-07-25T03:00:20;8.23;;;4.90;;
68854;SDS011;55859;55.710;12.464;2022-07-25T03:02:45;11.50;;;4.57;;
68854;SDS011;55859;55.710;12.464;2022-07-25T03:05:11;12.35;;;5.63;;
68854;SDS011;55859;55.710;12.464;2022-07-25T03:07:39;6.70;;;5.43;;
68854;SDS011;55859;55.710;12.464;2022-07-25T03:10:06;5.60;;;5.10;;
68854;SDS011;55859;55.710;12.464;2022-07-25T03:12:32;7.72;;;4.90;;
68854;SDS011;55859;55.710;12.464;2022-07-25T03:15:00;10.75;;;4.93;;
68854;SDS011;55859;55.710;12.464;2022-07-25T03:17:26;5.10;;;4.63;;
68854;SDS011;55859;55.710;12.464;2022-07-25T03:19:52;7.07;;;4.82;;
68854;SDS011;55859;55.710;12.464;2022-07-25T03:22:18;6.70;;;4.88;;
68854;SDS011;55859;55.710;12.464;2022-07-25T03:24:44;4.70;;;4.30;;
68854;SDS011;55859;55.710;12.464;2022-07-25T03:27:09;4.97;;;4.57;;
68854;SDS011;55859;55.710;12.464;2022-07-25T03:29:34;5.78;;;5.22;;
68854;SDS011;55859;55.710;12.464;2022-07-25T03:32:00;7.22;;;4.78;;
68854;SDS011;55859;55.710;12.464;2022-07-25T03:34:26;5.65;;;5.13;;
68854;SDS011;55859;55.710;12.464;2022-07-25T03:36:51;5.60;;;4.63;;
68854;SDS011;55859;55.710;12.464;2022-07-25T03:39:16;6.65;;;5.35;;
68854;SDS011;55859;55.710;12.464;2022-07-25T03:41:42;6.03;;;4.30;;
68854;SDS011;55859;55.710;12.464;2022-07-25T03:44:07;7.93;;;4.47;;
68854;SDS011;55859;55.710;12.464;2022-07-25T03:46:33;4.85;;;4.15;;
68854;SDS011;55859;55.710;12.464;2022-07-25T03:48:58;5.95;;;4.70;;
68854;SDS011;55859;55.710;12.464;2022-07-25T03:51:24;6.37;;;4.03;;
68854;SDS011;55859;55.710;12.464;2022-07-25T03:53:49;4.63;;;4.13;;
68854;SDS011;55859;55.710;12.464;2022-07-25T03:56:27;7.18;;;4.53;;
68854;SDS011;55859;55.710;12.464;2022-07-25T03:59:14;6.25;;;4.40;;
68854;SDS011;55859;55.710;12.464;2022-07-25T04:01:41;5.40;;;4.35;;
68854;SDS011;55859;55.710;12.464;2022-07-25T04:04:08;4.45;;;4.05;;
68854;SDS011;55859;55.710;12.464;2022-07-25T04:06:37;4.20;;;3.85;;
68854;SDS011;55859;55.710;12.464;2022-07-25T04:09:03;5.97;;;4.20;;
68854;SDS011;55859;55.710;12.464;2022-07-25T04:11:29;9.02;;;4.78;;
68854;SDS011;55859;55.710;12.464;2022-07-25T04:13:55;8.45;;;4.50;;
68854;SDS011;55859;55.710;12.464;2022-07-25T04:16:21;4.47;;;4.18;;
68854;SDS011;55859;55.710;12.464;2022-07-25T04:18:47;7.55;;;4.80;;
68854;SDS011;55859;55.710;12.464;2022-07-25T04:21:12;5.50;;;4.10;;
68854;SDS011;55859;55.710;12.464;2022-07-25T04:23:37;4.10;;;3.70;;
68854;SDS011;55859;55.710;12.464;2022-07-25T04:26:03;5.63;;;3.92;;
68854;SDS011;55859;55.710;12.464;2022-07-25T04:28:28;4.05;;;3.75;;
68854;SDS011;55859;55.710;12.464;2022-07-25T04:30:54;4.65;;;3.70;;
68854;SDS011;55859;55.710;12.464;2022-07-25T04:33:20;9.65;;;3.08;;
68854;SDS011;55859;55.710;12.464;2022-07-25T04:35:46;3.88;;;3.58;;
68854;SDS011;55859;55.710;12.464;2022-07-25T04:38:12;6.05;;;3.85;;
68854;SDS011;55859;55.710;12.464;2022-07-25T04:40:37;6.43;;;3.80;;
68854;SDS011;55859;55.710;12.464;2022-07-25T04:43:03;6.47;;;3.60;;
68854;SDS011;55859;55.710;12.464;2022-07-25T04:45:29;4.07;;;3.78;;
68854;SDS011;55859;55.710;12.464;2022-07-25T04:47:55;3.92;;;3.63;;
68854;SDS011;55859;55.710;12.464;2022-07-25T04:50:20;3.83;;;3.30;;
68854;SDS011;55859;55.710;12.464;2022-07-25T04:52:46;7.97;;;3.63;;
68854;SDS011;55859;55.710;12.464;2022-07-25T04:55:11;9.10;;;3.37;;
68854;SDS011;55859;55.710;12.464;2022-07-25T04:57:37;10.63;;;3.10;;
68854;SDS011;55859;55.710;12.464;2022-07-25T05:00:06;7.40;;;3.25;;
68854;SDS011;55859;55.710;12.464;2022-07-25T05:02:33;4.53;;;3.35;;
68854;SDS011;55859;55.710;12.464;2022-07-25T05:04:58;3.80;;;3.50;;
68854;SDS011;55859;55.710;12.464;2022-07-25T05:07:24;3.50;;;3.30;;
68854;SDS011;55859;55.710;12.464;2022-07-25T05:09:49;5.63;;;3.50;;
68854;SDS011;55859;55.710;12.464;2022-07-25T05:12:14;3.60;;;3.30;;
68854;SDS011;55859;55.710;12.464;2022-07-25T05:14:40;3.90;;;3.23;;
68854;SDS011;55859;55.710;12.464;2022-07-25T05:17:05;6.85;;;3.00;;
68854;SDS011;55859;55.710;12.464;2022-07-25T05:19:31;5.05;;;3.50;;
68854;SDS011;55859;55.710;12.464;2022-07-25T05:21:56;4.60;;;3.37;;
68854;SDS011;55859;55.710;12.464;2022-07-25T05:24:21;4.70;;;3.22;;
68854;SDS011;55859;55.710;12.464;2022-07-25T05:26:47;9.15;;;3.55;;
68854;SDS011;55859;55.710;12.464;2022-07-25T05:29:13;6.13;;;3.25;;
68854;SDS011;55859;55.710;12.464;2022-07-25T05:31:39;7.07;;;3.08;;
68854;SDS011;55859;55.710;12.464;2022-07-25T05:34:05;3.50;;;3.17;;
68854;SDS011;55859;55.710;12.464;2022-07-25T05:36:30;3.05;;;2.85;;
68854;SDS011;55859;55.710;12.464;2022-07-25T05:38:55;3.90;;;3.10;;
68854;SDS011;55859;55.710;12.464;2022-07-25T05:41:21;11.25;;;3.35;;
68854;SDS011;55859;55.710;12.464;2022-07-25T05:43:46;7.10;;;2.42;;
68854;SDS011;55859;55.710;12.464;2022-07-25T05:46:12;3.10;;;2.80;;
68854;SDS011;55859;55.710;12.464;2022-07-25T05:48:39;3.40;;;2.63;;
68854;SDS011;55859;55.710;12.464;2022-07-25T05:51:05;2.97;;;2.65;;
68854;SDS011;55859;55.710;12.464;2022-07-25T05:53:30;2.65;;;2.53;;
68854;SDS011;55859;55.710;12.464;2022-07-25T05:55:56;3.78;;;2.55;;
68854;SDS011;55859;55.710;12.464;2022-07-25T05:58:21;5.38;;;2.53;;
68854;SDS011;55859;55.710;12.464;2022-07-25T06:00:47;5.60;;;2.72;;
68854;SDS011;55859;55.710;12.464;2022-07-25T06:03:12;2.45;;;2.25;;
68854;SDS011;55859;55.710;12.464;2022-07-25T06:05:38;2.85;;;2.55;;
68854;SDS011;55859;55.710;12.464;2022-07-25T06:08:03;5.47;;;2.70;;
68854;SDS011;55859;55.710;12.464;2022-07-25T06:10:29;2.92;;;2.60;;
68854;SDS011;55859;55.710;12.464;2022-07-25T06:12:54;4.00;;;2.87;;
68854;SDS011;55859;55.710;12.464;2022-07-25T06:15:19;2.50;;;2.30;;
68854;SDS011;55859;55.710;12.464;2022-07-25T06:17:45;2.60;;;2.40;;
68854;SDS011;55859;55.710;12.464;2022-07-25T06:20:10;2.83;;;2.60;;
68854;SDS011;55859;55.710;12.464;2022-07-25T06:22:36;2.65;;;2.45;;
68854;SDS011;55859;55.710;12.464;2022-07-25T06:25:02;2.78;;;2.60;;
68854;SDS011;55859;55.710;12.464;2022-07-25T06:27:28;9.95;;;3.05;;
68854;SDS011;55859;55.710;12.464;2022-07-25T06:29:53;2.58;;;2.40;;
68854;SDS011;55859;55.710;12.464;2022-07-25T06:32:19;2.53;;;2.40;;
68854;SDS011;55859;55.710;12.464;2022-07-25T06:34:44;3.70;;;2.40;;
68854;SDS011;55859;55.710;12.464;2022-07-25T06:37:09;8.63;;;2.40;;
68854;SDS011;55859;55.710;12.464;2022-07-25T06:39:34;2.40;;;2.20;;
68854;SDS011;55859;55.710;12.464;2022-07-25T06:42:00;2.80;;;2.33;;
68854;SDS011;55859;55.710;12.464;2022-07-25T06:44:27;3.22;;;2.85;;
68854;SDS011;55859;55.710;12.464;2022-07-25T06:46:55;2.55;;;2.35;;
68854;SDS011;55859;55.710;12.464;2022-07-25T06:49:21;5.17;;;2.50;;
68854;SDS011;55859;55.710;12.464;2022-07-25T06:51:46;5.20;;;2.40;;
68854;SDS011;55859;55.710;12.464;2022-07-25T06:54:11;3.58;;;2.22;;
68854;SDS011;55859;55.710;12.464;2022-07-25T06:56:39;5.20;;;2.40;;
68854;SDS011;55859;55.710;12.464;2022-07-25T06:59:05;2.55;;;2.35;;
68854;SDS011;55859;55.710;12.464;2022-07-25T07:01:30;3.00;;;2.38;;
68854;SDS011;55859;55.710;12.464;2022-07-25T07:03:55;4.65;;;2.30;;
68854;SDS011;55859;55.710;12.464;2022-07-25T07:06:21;5.33;;;2.47;;
68854;SDS011;55859;55.710;12.464;2022-07-25T07:08:46;2.67;;;2.47;;
68854;SDS011;55859;55.710;12.464;2022-07-25T07:11:11;3.43;;;2.10;;
68854;SDS011;55859;55.710;12.464;2022-07-25T07:13:39;2.25;;;2.15;;
68854;SDS011;55859;55.710;12.464;2022-07-25T07:16:04;2.93;;;2.40;;
68854;SDS011;55859;55.710;12.464;2022-07-25T07:18:29;6.65;;;2.10;;
68854;SDS011;55859;55.710;12.464;2022-07-25T07:20:55;5.25;;;2.45;;
68854;SDS011;55859;55.710;12.464;2022-07-25T07:23:20;6.15;;;2.30;;
68854;SDS011;55859;55.710;12.464;2022-07-25T07:25:47;2.25;;;1.98;;
68854;SDS011;55859;55.710;12.464;2022-07-25T07:28:12;2.33;;;2.10;;
68854;SDS011;55859;55.710;12.464;2022-07-25T07:30:38;3.15;;;2.40;;
68854;SDS011;55859;55.710;12.464;2022-07-25T07:33:03;2.70;;;1.98;;
68854;SDS011;55859;55.710;12.464;2022-07-25T07:35:29;2.33;;;2.03;;
68854;SDS011;55859;55.710;12.464;2022-07-25T07:37:54;2.20;;;2.00;;
68854;SDS011;55859;55.710;12.464;2022-07-25T07:40:20;2.80;;;2.30;;
68854;SDS011;55859;55.710;12.464;2022-07-25T07:42:47;2.25;;;2.05;;
68854;SDS011;55859;55.710;12.464;2022-07-25T07:45:15;2.25;;;2.05;;
68854;SDS011;55859;55.710;12.464;2022-07-25T07:47:42;2.72;;;2.15;;
68854;SDS011;55859;55.710;12.464;2022-07-25T07:50:08;6.40;;;2.10;;
68854;SDS011;55859;55.710;12.464;2022-07-25T07:52:34;2.38;;;2.17;;
68854;SDS011;55859;55.710;12.464;2022-07-25T07:55:00;2.35;;;2.15;;
68854;SDS011;55859;55.710;12.464;2022-07-25T07:57:44;2.40;;;1.98;;
68854;SDS011;55859;55.710;12.464;2022-07-25T08:00:10;1.88;;;1.77;;
68854;SDS011;55859;55.710;12.464;2022-07-25T08:02:45;2.50;;;2.30;;
68854;SDS011;55859;55.710;12.464;2022-07-25T08:05:13;2.20;;;1.92;;
68854;SDS011;55859;55.710;12.464;2022-07-25T08:07:45;2.90;;;2.70;;
68854;SDS011;55859;55.710;12.464;2022-07-25T08:10:10;8.15;;;1.80;;
68854;SDS011;55859;55.710;12.464;2022-07-25T08:12:38;3.63;;;1.90;;
68854;SDS011;55859;55.710;12.464;2022-07-25T08:15:05;2.05;;;1.75;;
68854;SDS011;55859;55.710;12.464;2022-07-25T08:17:31;1.92;;;1.55;;
68854;SDS011;55859;55.710;12.464;2022-07-25T08:19:56;2.00;;;1.83;;
68854;SDS011;55859;55.710;12.464;2022-07-25T08:22:21;2.87;;;1.80;;
68854;SDS011;55859;55.710;12.464;2022-07-25T08:24:47;4.30;;;1.90;;
68854;SDS011;55859;55.710;12.464;2022-07-25T08:27:12;2.00;;;1.80;;
68854;SDS011;55859;55.710;12.464;2022-07-25T08:29:37;2.67;;;1.80;;
68854;SDS011;55859;55.710;12.464;2022-07-25T08:32:03;1.98;;;1.75;;
68854;SDS011;55859;55.710;12.464;2022-07-25T08:34:28;3.50;;;1.48;;
68854;SDS011;55859;55.710;12.464;2022-07-25T08:36:54;2.17;;;1.73;;
68854;SDS011;55859;55.710;12.464;2022-07-25T08:39:19;3.60;;;1.50;;
68854;SDS011;55859;55.710;12.464;2022-07-25T08:41:44;9.07;;;1.67;;
68854;SDS011;55859;55.710;12.464;2022-07-25T08:44:10;1.55;;;1.45;;
68854;SDS011;55859;55.710;12.464;2022-07-25T08:46:39;3.33;;;1.70;;
68854;SDS011;55859;55.710;12.464;2022-07-25T08:49:05;3.10;;;2.03;;
68854;SDS011;55859;55.710;12.464;2022-07-25T08:51:32;1.60;;;1.50;;
68854;SDS011;55859;55.710;12.464;2022-07-25T08:53:58;1.52;;;1.42;;
68854;SDS011;55859;55.710;12.464;2022-07-25T08:56:24;3.40;;;1.65;;
68854;SDS011;55859;55.710;12.464;2022-07-25T08:58:50;6.43;;;1.70;;
68854;SDS011;55859;55.710;12.464;2022-07-25T09:01:15;1.80;;;1.70;;
68854;SDS011;55859;55.710;12.464;2022-07-25T09:03:41;1.53;;;1.40;;
68854;SDS011;55859;55.710;12.464;2022-07-25T09:06:17;3.55;;;1.50;;
68854;SDS011;55859;55.710;12.464;2022-07-25T09:08:50;5.53;;;1.90;;
68854;SDS011;55859;55.710;12.464;2022-07-25T09:11:24;1.60;;;1.50;;
68854;SDS011;55859;55.710;12.464;2022-07-25T09:13:59;2.63;;;1.70;;
68854;SDS011;55859;55.710;12.464;2022-07-25T09:16:33;3.58;;;1.77;;
68854;SDS011;55859;55.710;12.464;2022-07-25T09:19:08;2.53;;;1.95;;
68854;SDS011;55859;55.710;12.464;2022-07-25T09:21:44;2.75;;;1.38;;
68854;SDS011;55859;55.710;12.464;2022-07-25T09:24:21;4.75;;;1.40;;
68854;SDS011;55859;55.710;12.464;2022-07-25T09:26:50;1.73;;;1.63;;
68854;SDS011;55859;55.710;12.464;2022-07-25T09:29:19;2.65;;;1.50;;
68854;SDS011;55859;55.710;12.464;2022-07-25T09:31:48;1.35;;;1.25;;
68854;SDS011;55859;55.710;12.464;2022-07-25T09:37:06;1.70;;;1.60;;
68854;SDS011;55859;55.710;12.464;2022-07-25T09:42:26;2.63;;;1.63;;
68854;SDS011;55859;55.710;12.464;2022-07-25T09:45:08;2.00;;;1.50;;
68854;SDS011;55859;55.710;12.464;2022-07-25T09:50:19;1.50;;;1.40;;
68854;SDS011;55859;55.710;12.464;2022-07-25T09:52:48;1.50;;;1.40;;
68854;SDS011;55859;55.710;12.464;2022-07-25T09:55:15;2.55;;;1.80;;
68854;SDS011;55859;55.710;12.464;2022-07-25T09:57:41;1.92;;;1.10;;
68854;SDS011;55859;55.710;12.464;2022-07-25T10:00:09;2.97;;;1.23;;
68854;SDS011;55859;55.710;12.464;2022-07-25T10:02:40;2.78;;;2.03;;
68854;SDS011;55859;55.710;12.464;2022-07-25T10:07:53;4.43;;;1.52;;
68854;SDS011;55859;55.710;12.464;2022-07-25T10:12:57;2.88;;;1.55;;
68854;SDS011;55859;55.710;12.464;2022-07-25T10:15:41;1.77;;;1.65;;
68854;SDS011;55859;55.710;12.464;2022-07-25T10:18:08;1.38;;;1.27;;
68854;SDS011;55859;55.710;12.464;2022-07-25T10:20:35;2.20;;;1.50;;
68854;SDS011;55859;55.710;12.464;2022-07-25T10:23:01;2.08;;;1.40;;
68854;SDS011;55859;55.710;12.464;2022-07-25T10:25:26;1.30;;;1.20;;
68854;SDS011;55859;55.710;12.464;2022-07-25T10:27:53;4.53;;;1.33;;
68854;SDS011;55859;55.710;12.464;2022-07-25T10:30:33;1.33;;;1.23;;
68854;SDS011;55859;55.710;12.464;2022-07-25T10:33:09;2.00;;;1.20;;
68854;SDS011;55859;55.710;12.464;2022-07-25T10:35:37;1.70;;;1.48;;
68854;SDS011;55859;55.710;12.464;2022-07-25T10:38:03;1.98;;;1.48;;
68854;SDS011;55859;55.710;12.464;2022-07-25T10:40:35;1.50;;;1.40;;
68854;SDS011;55859;55.710;12.464;2022-07-25T10:45:42;2.90;;;1.55;;
68854;SDS011;55859;55.710;12.464;2022-07-25T10:48:20;1.77;;;1.35;;
68854;SDS011;55859;55.710;12.464;2022-07-25T10:51:01;2.25;;;1.55;;
68854;SDS011;55859;55.710;12.464;2022-07-25T10:56:09;1.38;;;1.23;;
68854;SDS011;55859;55.710;12.464;2022-07-25T10:58:43;5.13;;;1.42;;
68854;SDS011;55859;55.710;12.464;2022-07-25T11:01:11;3.10;;;1.50;;
68854;SDS011;55859;55.710;12.464;2022-07-25T11:03:41;4.43;;;1.20;;
68854;SDS011;55859;55.710;12.464;2022-07-25T11:06:13;1.60;;;1.27;;
68854;SDS011;55859;55.710;12.464;2022-07-25T11:08:40;3.13;;;1.10;;
68854;SDS011;55859;55.710;12.464;2022-07-25T11:11:07;1.63;;;1.38;;
68854;SDS011;55859;55.710;12.464;2022-07-25T11:13:36;1.88;;;1.20;;
68854;SDS011;55859;55.710;12.464;2022-07-25T11:16:06;3.67;;;1.05;;
68854;SDS011;55859;55.710;12.464;2022-07-25T11:18:36;8.50;;;1.42;;
68854;SDS011;55859;55.710;12.464;2022-07-25T11:21:04;2.28;;;1.48;;
68854;SDS011;55859;55.710;12.464;2022-07-25T11:23:31;2.10;;;1.15;;
68854;SDS011;55859;55.710;12.464;2022-07-25T11:26:07;2.58;;;1.10;;
68854;SDS011;55859;55.710;12.464;2022-07-25T11:28:40;3.78;;;1.40;;
68854;SDS011;55859;55.710;12.464;2022-07-25T11:31:07;1.48;;;1.35;;
68854;SDS011;55859;55.710;12.464;2022-07-25T11:33:33;2.78;;;1.40;;
68854;SDS011;55859;55.710;12.464;2022-07-25T11:35:59;3.00;;;1.48;;
68854;SDS011;55859;55.710;12.464;2022-07-25T11:38:25;1.42;;;1.33;;
68854;SDS011;55859;55.710;12.464;2022-07-25T11:40:51;3.35;;;1.35;;
68854;SDS011;55859;55.710;12.464;2022-07-25T11:43:21;4.53;;;1.50;;
68854;SDS011;55859;55.710;12.464;2022-07-25T11:45:57;7.13;;;1.30;;
68854;SDS011;55859;55.710;12.464;2022-07-25T11:48:34;7.65;;;1.27;;
68854;SDS011;55859;55.710;12.464;2022-07-25T11:51:09;2.45;;;1.55;;
68854;SDS011;55859;55.710;12.464;2022-07-25T11:53:41;5.72;;;1.65;;
68854;SDS011;55859;55.710;12.464;2022-07-25T11:56:11;3.38;;;1.25;;
68854;SDS011;55859;55.710;12.464;2022-07-25T11:58:37;3.22;;;1.00;;
68854;SDS011;55859;55.710;12.464;2022-07-25T12:01:09;7.13;;;1.40;;
68854;SDS011;55859;55.710;12.464;2022-07-25T12:03:36;2.40;;;1.40;;
68854;SDS011;55859;55.710;12.464;2022-07-25T12:06:09;5.88;;;1.50;;
68854;SDS011;55859;55.710;12.464;2022-07-25T12:08:36;6.68;;;1.60;;
68854;SDS011;55859;55.710;12.464;2022-07-25T12:11:19;5.38;;;1.40;;
68854;SDS011;55859;55.710;12.464;2022-07-25T12:13:46;8.73;;;1.50;;
68854;SDS011;55859;55.710;12.464;2022-07-25T12:16:12;6.65;;;1.73;;
68854;SDS011;55859;55.710;12.464;2022-07-25T12:18:38;4.80;;;1.35;;
68854;SDS011;55859;55.710;12.464;2022-07-25T12:21:03;4.18;;;1.30;;
68854;SDS011;55859;55.710;12.464;2022-07-25T12:23:29;4.38;;;1.63;;
68854;SDS011;55859;55.710;12.464;2022-07-25T12:25:54;3.15;;;1.23;;
68854;SDS011;55859;55.710;12.464;2022-07-25T12:28:20;5.82;;;1.60;;
68854;SDS011;55859;55.710;12.464;2022-07-25T12:30:45;5.30;;;1.53;;
68854;SDS011;55859;55.710;12.464;2022-07-25T12:33:11;6.60;;;1.50;;
68854;SDS011;55859;55.710;12.464;2022-07-25T12:35:38;5.47;;;1.60;;
68854;SDS011;55859;55.710;12.464;2022-07-25T12:38:04;2.28;;;1.42;;
68854;SDS011;55859;55.710;12.464;2022-07-25T12:40:30;3.28;;;1.35;;
68854;SDS011;55859;55.710;12.464;2022-07-25T12:42:56;2.25;;;1.77;;
68854;SDS011;55859;55.710;12.464;2022-07-25T12:45:22;7.53;;;1.90;;
68854;SDS011;55859;55.710;12.464;2022-07-25T12:47:48;2.88;;;1.60;;
68854;SDS011;55859;55.710;12.464;2022-07-25T12:50:14;7.32;;;2.22;;
68854;SDS011;55859;55.710;12.464;2022-07-25T12:52:42;3.05;;;1.80;;
68854;SDS011;55859;55.710;12.464;2022-07-25T12:55:10;7.90;;;1.65;;
68854;SDS011;55859;55.710;12.464;2022-07-25T12:57:38;3.63;;;2.08;;
68854;SDS011;55859;55.710;12.464;2022-07-25T13:00:04;3.92;;;1.42;;
68854;SDS011;55859;55.710;12.464;2022-07-25T13:02:31;11.02;;;2.03;;
68854;SDS011;55859;55.710;12.464;2022-07-25T13:04:57;1.80;;;1.70;;
68854;SDS011;55859;55.710;12.464;2022-07-25T13:07:22;8.43;;;2.25;;
68854;SDS011;55859;55.710;12.464;2022-07-25T13:09:48;4.43;;;2.07;;
68854;SDS011;55859;55.710;12.464;2022-07-25T13:12:13;2.67;;;1.73;;
68854;SDS011;55859;55.710;12.464;2022-07-25T13:14:38;4.13;;;1.60;;
68854;SDS011;55859;55.710;12.464;2022-07-25T13:17:04;8.43;;;1.73;;
68854;SDS011;55859;55.710;12.464;2022-07-25T13:19:29;2.15;;;1.30;;
68854;SDS011;55859;55.710;12.464;2022-07-25T13:21:54;4.03;;;1.65;;
68854;SDS011;55859;55.710;12.464;2022-07-25T13:24:20;4.28;;;1.58;;
68854;SDS011;55859;55.710;12.464;2022-07-25T13:26:45;3.13;;;1.50;;
68854;SDS011;55859;55.710;12.464;2022-07-25T13:29:10;6.72;;;1.70;;
68854;SDS011;55859;55.710;12.464;2022-07-25T13:31:36;11.52;;;1.63;;
68854;SDS011;55859;55.710;12.464;2022-07-25T13:34:03;2.50;;;1.60;;
68854;SDS011;55859;55.710;12.464;2022-07-25T13:36:30;6.97;;;1.95;;
68854;SDS011;55859;55.710;12.464;2022-07-25T13:38:56;4.00;;;1.70;;
68854;SDS011;55859;55.710;12.464;2022-07-25T13:41:21;12.38;;;2.30;;
68854;SDS011;55859;55.710;12.464;2022-07-25T13:43:47;8.40;;;1.93;;
68854;SDS011;55859;55.710;12.464;2022-07-25T13:46:12;6.00;;;2.10;;
68854;SDS011;55859;55.710;12.464;2022-07-25T13:48:37;4.88;;;1.50;;
68854;SDS011;55859;55.710;12.464;2022-07-25T13:51:03;5.30;;;2.33;;
68854;SDS011;55859;55.710;12.464;2022-07-25T13:53:28;2.72;;;1.90;;
68854;SDS011;55859;55.710;12.464;2022-07-25T13:55:55;2.15;;;1.88;;
68854;SDS011;55859;55.710;12.464;2022-07-25T13:58:21;6.65;;;1.58;;
68854;SDS011;55859;55.710;12.464;2022-07-25T14:00:46;2.93;;;2.00;;
68854;SDS011;55859;55.710;12.464;2022-07-25T14:03:11;2.85;;;1.70;;
68854;SDS011;55859;55.710;12.464;2022-07-25T14:05:37;3.57;;;1.57;;
68854;SDS011;55859;55.710;12.464;2022-07-25T14:08:03;3.65;;;2.20;;
68854;SDS011;55859;55.710;12.464;2022-07-25T14:10:29;3.28;;;2.05;;
68854;SDS011;55859;55.710;12.464;2022-07-25T14:12:54;4.70;;;2.23;;
68854;SDS011;55859;55.710;12.464;2022-07-25T14:15:20;3.50;;;2.80;;
68854;SDS011;55859;55.710;12.464;2022-07-25T14:17:45;5.05;;;2.00;;
68854;SDS011;55859;55.710;12.464;2022-07-25T14:20:11;6.05;;;2.10;;
68854;SDS011;55859;55.710;12.464;2022-07-25T14:22:37;3.15;;;2.13;;
68854;SDS011;55859;55.710;12.464;2022-07-25T14:25:03;3.83;;;2.63;;
68854;SDS011;55859;55.710;12.464;2022-07-25T14:27:30;14.57;;;2.40;;
68854;SDS011;55859;55.710;12.464;2022-07-25T14:29:55;3.00;;;2.63;;
68854;SDS011;55859;55.710;12.464;2022-07-25T14:32:20;5.40;;;2.38;;
68854;SDS011;55859;55.710;12.464;2022-07-25T14:34:46;9.03;;;2.50;;
68854;SDS011;55859;55.710;12.464;2022-07-25T14:37:11;5.15;;;2.40;;
68854;SDS011;55859;55.710;12.464;2022-07-25T14:39:37;5.43;;;2.28;;
68854;SDS011;55859;55.710;12.464;2022-07-25T14:42:02;3.88;;;2.45;;
68854;SDS011;55859;55.710;12.464;2022-07-25T14:44:28;4.50;;;2.40;;
68854;SDS011;55859;55.710;12.464;2022-07-25T14:46:54;4.68;;;2.17;;
68854;SDS011;55859;55.710;12.464;2022-07-25T14:49:23;8.13;;;2.33;;